createdAt,value
2018-04-10T00:00:02.798Z,15.78
2018-04-10T00:01:02.817Z,15.78
2018-04-10T00:02:02.847Z,15.81
2018-04-10T00:03:02.868Z,15.81
2018-04-10T00:04:02.892Z,15.86
2018-04-10T00:05:02.923Z,15.81
2018-04-10T00:06:02.952Z,15.91
2018-04-10T00:07:02.973Z,15.71
2018-04-10T00:08:02.997Z,15.76
2018-04-10T00:09:03.023Z,15.77
2018-04-10T00:10:03.064Z,15.88
2018-04-10T00:11:03.077Z,15.73
2018-04-10T00:12:03.107Z,15.84
2018-04-10T00:13:03.130Z,15.86
2018-04-10T00:14:03.158Z,15.84
2018-04-10T00:15:03.185Z,15.77
2018-04-10T00:16:03.209Z,15.81
2018-04-10T00:17:03.233Z,15.80
2018-04-10T00:18:03.265Z,15.80
2018-04-10T00:19:03.291Z,15.70
2018-04-10T00:20:03.321Z,15.81
2018-04-10T00:21:03.344Z,15.78
2018-04-10T00:22:03.371Z,15.85
2018-04-10T00:23:03.396Z,15.70
2018-04-10T00:24:03.416Z,15.76
2018-04-10T00:25:03.451Z,15.76
2018-04-10T00:26:03.471Z,15.71
2018-04-10T00:27:03.497Z,15.71
2018-04-10T00:28:03.526Z,15.84
2018-04-10T00:29:03.551Z,15.78
2018-04-10T00:30:03.580Z,15.73
2018-04-10T00:31:03.606Z,15.80
2018-04-10T00:32:03.629Z,15.71
2018-04-10T00:33:03.660Z,15.73
2018-04-10T00:34:03.675Z,15.71
2018-04-10T00:35:03.716Z,15.77
2018-04-10T00:36:03.732Z,15.70
2018-04-10T00:37:03.760Z,15.58
2018-04-10T00:38:03.779Z,15.59
2018-04-10T00:39:03.810Z,15.55
2018-04-10T00:40:03.837Z,15.48
2018-04-10T00:41:03.859Z,15.52
2018-04-10T00:42:03.885Z,15.58
2018-04-10T00:43:03.911Z,15.62
2018-04-10T00:44:03.939Z,15.56
2018-04-10T00:45:03.965Z,15.46
2018-04-10T00:46:03.995Z,15.43
2018-04-10T00:47:04.014Z,15.31
2018-04-10T00:48:04.043Z,15.34
2018-04-10T00:49:04.069Z,15.44
2018-04-10T00:50:04.097Z,15.37
2018-04-10T00:51:04.118Z,15.33
2018-04-10T00:52:04.148Z,15.30
2018-04-10T00:53:04.169Z,15.37
2018-04-10T00:54:04.203Z,15.34
2018-04-10T00:55:04.224Z,15.37
2018-04-10T00:56:04.254Z,15.35
2018-04-10T00:57:04.278Z,15.35
2018-04-10T00:58:04.309Z,15.23
2018-04-10T00:59:04.323Z,15.28
2018-04-10T01:00:04.354Z,15.33
2018-04-10T01:01:04.378Z,15.09
2018-04-10T01:02:04.404Z,15.12
2018-04-10T01:03:04.428Z,15.18
2018-04-10T01:04:04.458Z,15.15
2018-04-10T01:05:04.479Z,15.30
2018-04-10T01:06:04.506Z,15.31
2018-04-10T01:07:04.532Z,15.27
2018-04-10T01:08:04.563Z,15.28
2018-04-10T01:09:04.587Z,15.28
2018-04-10T01:10:04.612Z,15.25
2018-04-10T01:11:04.644Z,15.25
2018-04-10T01:12:04.658Z,15.28
2018-04-10T01:13:04.688Z,15.28
2018-04-10T01:14:04.717Z,15.27
2018-04-10T01:15:04.743Z,15.30
2018-04-10T01:16:04.769Z,15.23
2018-04-10T01:17:04.788Z,15.22
2018-04-10T01:18:04.813Z,15.15
2018-04-10T01:19:04.838Z,15.19
2018-04-10T01:20:04.863Z,15.18
2018-04-10T01:21:04.890Z,15.20
2018-04-10T01:22:04.929Z,15.13
2018-04-10T01:23:04.949Z,15.23
2018-04-10T01:24:04.968Z,15.20
2018-04-10T01:25:04.994Z,15.27
2018-04-10T01:26:05.019Z,15.13
2018-04-10T01:27:05.043Z,15.18
2018-04-10T01:28:05.073Z,15.16
2018-04-10T01:29:05.111Z,15.13
2018-04-10T01:30:05.118Z,15.18
2018-04-10T01:31:05.147Z,15.07
2018-04-10T01:32:05.175Z,15.05
2018-04-10T01:33:05.203Z,15.03
2018-04-10T01:34:05.228Z,14.97
2018-04-10T01:35:05.252Z,14.95
2018-04-10T01:36:05.272Z,14.93
2018-04-10T01:37:05.298Z,14.97
2018-04-10T01:38:05.327Z,15.04
2018-04-10T01:39:05.352Z,15.11
2018-04-10T01:40:05.377Z,15.04
2018-04-10T01:41:05.404Z,15.03
2018-04-10T01:42:05.431Z,15.04
2018-04-10T01:43:05.451Z,15.01
2018-04-10T01:44:05.477Z,14.93
2018-04-10T01:45:05.501Z,14.94
2018-04-10T01:46:05.527Z,14.78
2018-04-10T01:47:05.552Z,14.75
2018-04-10T01:48:05.577Z,14.63
2018-04-10T01:49:05.610Z,14.66
2018-04-10T01:50:05.633Z,14.56
2018-04-10T01:51:05.656Z,14.60
2018-04-10T01:52:05.681Z,14.59
2018-04-10T01:53:05.706Z,14.57
2018-04-10T01:54:05.732Z,14.53
2018-04-10T01:55:05.760Z,14.61
2018-04-10T01:56:05.785Z,14.60
2018-04-10T01:57:05.816Z,14.60
2018-04-10T01:58:05.835Z,14.60
2018-04-10T01:59:05.857Z,14.66
2018-04-10T02:00:05.891Z,14.64
2018-04-10T02:01:05.915Z,14.66
2018-04-10T02:02:05.936Z,14.63
2018-04-10T02:03:05.965Z,14.71
2018-04-10T02:04:05.986Z,14.71
2018-04-10T02:05:06.012Z,14.71
2018-04-10T02:06:06.038Z,14.64
2018-04-10T02:07:06.062Z,14.57
2018-04-10T02:08:06.088Z,14.54
2018-04-10T02:09:06.111Z,14.59
2018-04-10T02:10:06.140Z,14.52
2018-04-10T02:11:06.373Z,14.56
2018-04-10T02:12:06.398Z,14.60
2018-04-10T02:13:10.080Z,14.53
2018-04-10T02:14:06.241Z,14.49
2018-04-10T02:15:06.271Z,14.46
2018-04-10T02:16:06.293Z,14.53
2018-04-10T02:17:06.316Z,14.64
2018-04-10T02:18:06.338Z,14.57
2018-04-10T02:19:06.365Z,14.60
2018-04-10T02:20:06.394Z,14.67
2018-04-10T02:21:06.415Z,14.64
2018-04-10T02:22:06.447Z,14.63
2018-04-10T02:23:06.465Z,14.57
2018-04-10T02:24:06.500Z,14.56
2018-04-10T02:25:06.540Z,14.60
2018-04-10T02:26:06.550Z,14.54
2018-04-10T02:27:06.571Z,14.57
2018-04-10T02:28:06.602Z,14.52
2018-04-10T02:29:06.620Z,14.57
2018-04-10T02:30:06.651Z,14.60
2018-04-10T02:31:06.674Z,14.54
2018-04-10T02:32:06.696Z,14.48
2018-04-10T02:33:06.723Z,14.44
2018-04-10T02:34:06.753Z,14.26
2018-04-10T02:35:06.773Z,14.20
2018-04-10T02:36:06.796Z,14.09
2018-04-10T02:37:06.833Z,14.24
2018-04-10T02:38:06.846Z,14.29
2018-04-10T02:39:06.870Z,14.20
2018-04-10T02:40:06.895Z,14.26
2018-04-10T02:41:06.926Z,14.29
2018-04-10T02:42:06.946Z,14.27
2018-04-10T02:43:06.979Z,14.24
2018-04-10T02:44:07.005Z,14.23
2018-04-10T02:45:07.020Z,14.26
2018-04-10T02:46:07.050Z,14.34
2018-04-10T02:47:07.075Z,14.31
2018-04-10T02:48:07.104Z,14.27
2018-04-10T02:49:07.129Z,14.29
2018-04-10T02:50:07.148Z,14.24
2018-04-10T02:51:07.176Z,14.35
2018-04-10T02:52:07.199Z,14.27
2018-04-10T02:53:07.226Z,14.29
2018-04-10T02:54:07.247Z,14.19
2018-04-10T02:55:07.270Z,14.13
2018-04-10T02:56:07.299Z,14.02
2018-04-10T02:57:07.328Z,14.08
2018-04-10T02:58:07.346Z,14.01
2018-04-10T02:59:07.377Z,14.04
2018-04-10T03:00:07.395Z,14.02
2018-04-10T03:01:07.424Z,13.96
2018-04-10T03:02:07.448Z,13.93
2018-04-10T03:03:07.477Z,13.87
2018-04-10T03:04:07.495Z,13.96
2018-04-10T03:05:07.525Z,13.88
2018-04-10T03:06:07.545Z,13.84
2018-04-10T03:07:07.570Z,13.76
2018-04-10T03:08:07.597Z,13.83
2018-04-10T03:09:07.632Z,13.84
2018-04-10T03:10:07.644Z,13.76
2018-04-10T03:11:07.670Z,13.69
2018-04-10T03:12:07.693Z,13.62
2018-04-10T03:13:07.717Z,13.62
2018-04-10T03:14:07.743Z,13.51
2018-04-10T03:15:07.764Z,13.53
2018-04-10T03:16:07.794Z,13.55
2018-04-10T03:17:07.824Z,13.59
2018-04-10T03:18:07.843Z,13.53
2018-04-10T03:19:07.864Z,13.54
2018-04-10T03:20:07.893Z,13.54
2018-04-10T03:21:07.919Z,13.51
2018-04-10T03:22:07.959Z,13.50
2018-04-10T03:23:07.968Z,13.54
2018-04-10T03:24:07.993Z,13.50
2018-04-10T03:25:08.019Z,13.55
2018-04-10T03:26:08.045Z,13.62
2018-04-10T03:27:08.067Z,13.72
2018-04-10T03:28:08.090Z,13.71
2018-04-10T03:29:08.118Z,13.66
2018-04-10T03:30:08.139Z,13.62
2018-04-10T03:31:08.168Z,13.68
2018-04-10T03:32:08.195Z,13.68
2018-04-10T03:33:08.218Z,13.62
2018-04-10T03:34:08.237Z,13.55
2018-04-10T03:35:08.263Z,13.61
2018-04-10T03:36:08.283Z,13.55
2018-04-10T03:37:08.312Z,13.57
2018-04-10T03:38:08.335Z,13.61
2018-04-10T03:39:08.362Z,13.55
2018-04-10T03:40:08.388Z,13.59
2018-04-10T03:41:08.413Z,13.61
2018-04-10T03:42:08.432Z,13.48
2018-04-10T03:43:08.458Z,13.50
2018-04-10T03:44:08.483Z,13.48
2018-04-10T03:45:08.508Z,13.55
2018-04-10T03:46:08.535Z,13.48
2018-04-10T03:47:08.572Z,13.55
2018-04-10T03:48:08.594Z,13.48
2018-04-10T03:49:08.611Z,13.36
2018-04-10T03:50:08.636Z,13.46
2018-04-10T03:51:08.652Z,13.48
2018-04-10T03:52:08.682Z,13.43
2018-04-10T03:53:08.708Z,13.36
2018-04-10T03:54:08.727Z,13.36
2018-04-10T03:55:08.755Z,13.51
2018-04-10T03:56:08.781Z,13.51
2018-04-10T03:57:08.806Z,13.53
2018-04-10T03:58:08.833Z,13.47
2018-04-10T03:59:08.846Z,13.50
2018-04-10T04:00:08.877Z,13.50
2018-04-10T04:01:08.896Z,13.44
2018-04-10T04:02:08.922Z,13.43
2018-04-10T04:03:08.956Z,13.36
2018-04-10T04:04:08.976Z,13.38
2018-04-10T04:05:08.997Z,13.38
2018-04-10T04:06:09.028Z,13.31
2018-04-10T04:07:09.049Z,13.38
2018-04-10T04:08:09.076Z,13.39
2018-04-10T04:09:09.094Z,13.35
2018-04-10T04:10:09.117Z,13.21
2018-04-10T04:11:09.146Z,13.29
2018-04-10T04:12:09.169Z,13.24
2018-04-10T04:13:09.192Z,13.39
2018-04-10T04:14:09.211Z,13.31
2018-04-10T04:15:09.246Z,13.41
2018-04-10T04:16:09.270Z,13.31
2018-04-10T04:17:09.287Z,13.27
2018-04-10T04:18:09.315Z,13.31
2018-04-10T04:19:09.350Z,13.41
2018-04-10T04:20:09.362Z,13.43
2018-04-10T04:21:09.386Z,13.32
2018-04-10T04:22:09.410Z,13.28
2018-04-10T04:23:09.431Z,13.24
2018-04-10T04:24:09.455Z,13.16
2018-04-10T04:25:09.484Z,13.22
2018-04-10T04:26:09.505Z,13.03
2018-04-10T04:27:09.539Z,13.04
2018-04-10T04:28:09.556Z,12.91
2018-04-10T04:29:09.581Z,12.87
2018-04-10T04:30:09.604Z,12.85
2018-04-10T04:31:09.628Z,12.85
2018-04-10T04:32:09.654Z,12.91
2018-04-10T04:33:09.677Z,12.80
2018-04-10T04:34:09.703Z,12.80
2018-04-10T04:35:09.720Z,12.81
2018-04-10T04:36:09.747Z,12.95
2018-04-10T04:37:09.773Z,12.98
2018-04-10T04:38:09.800Z,12.94
2018-04-10T04:39:09.819Z,12.99
2018-04-10T04:40:09.857Z,12.98
2018-04-10T04:41:09.872Z,12.94
2018-04-10T04:42:09.894Z,12.92
2018-04-10T04:43:09.915Z,12.95
2018-04-10T04:44:09.950Z,12.89
2018-04-10T04:45:09.965Z,12.98
2018-04-10T04:46:09.988Z,12.92
2018-04-10T04:47:10.010Z,12.95
2018-04-10T04:48:10.037Z,13.03
2018-04-10T04:49:10.060Z,12.99
2018-04-10T04:50:10.089Z,12.99
2018-04-10T04:51:10.115Z,12.89
2018-04-10T04:52:10.137Z,12.91
2018-04-10T04:53:10.159Z,12.80
2018-04-10T04:54:10.181Z,12.77
2018-04-10T04:55:10.213Z,12.77
2018-04-10T04:56:10.228Z,12.84
2018-04-10T04:57:10.253Z,12.88
2018-04-10T04:58:10.274Z,12.76
2018-04-10T04:59:10.299Z,12.85
2018-04-10T05:00:10.323Z,12.81
2018-04-10T05:01:10.351Z,12.79
2018-04-10T05:02:10.377Z,12.88
2018-04-10T05:03:10.398Z,12.80
2018-04-10T05:04:10.427Z,12.76
2018-04-10T05:05:10.452Z,12.85
2018-04-10T05:06:10.471Z,12.81
2018-04-10T05:07:10.507Z,12.79
2018-04-10T05:08:10.522Z,12.79
2018-04-10T05:09:10.546Z,12.84
2018-04-10T05:10:10.566Z,12.80
2018-04-10T05:11:10.604Z,12.79
2018-04-10T05:12:10.617Z,12.87
2018-04-10T05:13:10.641Z,12.94
2018-04-10T05:14:10.662Z,12.95
2018-04-10T05:15:10.686Z,12.89
2018-04-10T05:16:10.709Z,12.89
2018-04-10T05:17:10.735Z,12.99
2018-04-10T05:18:10.761Z,12.91
2018-04-10T05:19:10.782Z,12.98
2018-04-10T05:20:10.803Z,12.91
2018-04-10T05:21:10.829Z,12.95
2018-04-10T05:22:10.855Z,12.91
2018-04-10T05:23:10.881Z,13.03
2018-04-10T05:24:10.902Z,12.99
2018-04-10T05:25:10.928Z,13.06
2018-04-10T05:26:10.997Z,13.06
2018-04-10T05:27:10.973Z,13.14
2018-04-10T05:28:10.997Z,13.25
2018-04-10T05:29:11.026Z,13.21
2018-04-10T05:30:11.042Z,13.28
2018-04-10T05:31:11.079Z,13.10
2018-04-10T05:32:11.092Z,13.14
2018-04-10T05:33:11.118Z,13.27
2018-04-10T05:34:11.150Z,13.19
2018-04-10T05:35:11.167Z,13.19
2018-04-10T05:36:11.193Z,13.27
2018-04-10T05:37:11.225Z,13.32
2018-04-10T05:38:11.242Z,13.24
2018-04-10T05:39:11.265Z,13.38
2018-04-10T05:40:11.291Z,13.38
2018-04-10T05:41:11.327Z,13.35
2018-04-10T05:42:11.339Z,13.41
2018-04-10T05:43:11.365Z,13.32
2018-04-10T05:44:11.386Z,13.29
2018-04-10T05:45:11.411Z,13.27
2018-04-10T05:46:11.432Z,13.21
2018-04-10T05:47:11.456Z,13.24
2018-04-10T05:48:11.485Z,13.41
2018-04-10T05:49:11.510Z,13.43
2018-04-10T05:50:11.534Z,13.46
2018-04-10T05:51:11.555Z,13.44
2018-04-10T05:52:11.575Z,13.54
2018-04-10T05:53:11.648Z,13.48
2018-04-10T05:54:11.629Z,13.36
2018-04-10T05:55:11.652Z,13.46
2018-04-10T05:56:11.675Z,13.51
2018-04-10T05:57:11.698Z,13.50
2018-04-10T05:58:11.726Z,13.57
2018-04-10T05:59:11.751Z,13.68
2018-04-10T06:00:11.774Z,13.72
2018-04-10T06:01:11.816Z,13.68
2018-04-10T06:02:11.821Z,13.69
2018-04-10T06:03:11.849Z,13.68
2018-04-10T06:04:11.881Z,13.73
2018-04-10T06:05:11.899Z,13.81
2018-04-10T06:06:11.923Z,13.86
2018-04-10T06:07:11.945Z,13.87
2018-04-10T06:08:11.974Z,13.81
2018-04-10T06:09:11.995Z,13.83
2018-04-10T06:10:12.016Z,13.83
2018-04-10T06:11:12.045Z,13.79
2018-04-10T06:12:12.066Z,13.91
2018-04-10T06:13:12.096Z,13.90
2018-04-10T06:14:12.115Z,13.96
2018-04-10T06:15:12.145Z,14.01
2018-04-10T06:16:12.167Z,14.11
2018-04-10T06:17:12.197Z,14.21
2018-04-10T06:18:12.214Z,14.26
2018-04-10T06:19:12.240Z,14.31
2018-04-10T06:20:12.268Z,14.41
2018-04-10T06:21:12.290Z,14.36
2018-04-10T06:22:12.316Z,14.39
2018-04-10T06:23:12.340Z,14.44
2018-04-10T06:24:12.371Z,14.49
2018-04-10T06:25:12.396Z,14.41
2018-04-10T06:26:12.418Z,14.44
2018-04-10T06:27:12.440Z,14.60
2018-04-10T06:28:12.465Z,14.61
2018-04-10T06:29:12.497Z,14.53
2018-04-10T06:30:12.518Z,14.56
2018-04-10T06:31:12.544Z,14.57
2018-04-10T06:32:12.569Z,14.59
2018-04-10T06:33:12.589Z,14.53
2018-04-10T06:34:12.615Z,14.63
2018-04-10T06:35:12.646Z,14.66
2018-04-10T06:36:12.664Z,14.67
2018-04-10T06:37:12.694Z,14.78
2018-04-10T06:38:12.715Z,14.79
2018-04-10T06:39:12.745Z,14.83
2018-04-10T06:40:12.765Z,14.79
2018-04-10T06:41:12.794Z,14.72
2018-04-10T06:42:12.818Z,14.71
2018-04-10T06:43:12.853Z,14.78
2018-04-10T06:44:12.869Z,14.64
2018-04-10T06:45:12.898Z,14.75
2018-04-10T06:46:12.919Z,14.79
2018-04-10T06:47:12.945Z,14.75
2018-04-10T06:48:12.966Z,14.63
2018-04-10T06:49:12.997Z,14.75
2018-04-10T06:50:13.019Z,14.78
2018-04-10T06:51:13.047Z,14.71
2018-04-10T06:52:13.068Z,14.82
2018-04-10T06:53:13.103Z,14.80
2018-04-10T06:54:13.122Z,14.74
2018-04-10T06:55:13.145Z,14.79
2018-04-10T06:56:13.172Z,14.79
2018-04-10T06:57:13.195Z,14.80
2018-04-10T06:58:13.219Z,14.80
2018-04-10T06:59:13.246Z,14.67
2018-04-10T07:00:13.274Z,14.74
2018-04-10T07:01:13.304Z,14.72
2018-04-10T07:02:13.323Z,14.69
2018-04-10T07:03:13.345Z,14.71
2018-04-10T07:04:13.374Z,14.83
2018-04-10T07:05:13.399Z,14.74
2018-04-10T07:06:13.424Z,14.97
2018-04-10T07:07:13.449Z,14.91
2018-04-10T07:08:13.473Z,14.85
2018-04-10T07:09:13.497Z,14.93
2018-04-10T07:10:13.523Z,14.79
2018-04-10T07:11:13.549Z,14.72
2018-04-10T07:12:13.573Z,14.78
2018-04-10T07:13:13.635Z,14.75
2018-04-10T07:14:13.622Z,14.86
2018-04-10T07:15:13.653Z,14.90
2018-04-10T07:16:13.678Z,14.94
2018-04-10T07:17:13.707Z,14.93
2018-04-10T07:18:13.723Z,14.94
2018-04-10T07:19:13.753Z,14.97
2018-04-10T07:20:13.776Z,15.01
2018-04-10T07:21:13.801Z,15.11
2018-04-10T07:22:13.827Z,15.18
2018-04-10T07:23:13.855Z,15.07
2018-04-10T07:24:13.880Z,15.18
2018-04-10T07:25:13.910Z,15.25
2018-04-10T07:26:13.930Z,15.23
2018-04-10T07:27:13.962Z,15.28
2018-04-10T07:28:13.985Z,15.33
2018-04-10T07:29:14.007Z,15.33
2018-04-10T07:30:14.040Z,15.44
2018-04-10T07:31:14.056Z,15.43
2018-04-10T07:32:14.084Z,15.43
2018-04-10T07:33:14.110Z,15.41
2018-04-10T07:34:14.138Z,15.49
2018-04-10T07:35:14.186Z,15.43
2018-04-10T07:36:14.187Z,15.44
2018-04-10T07:37:14.213Z,15.40
2018-04-10T07:38:14.240Z,15.31
2018-04-10T07:39:14.265Z,15.41
2018-04-10T07:40:14.291Z,15.43
2018-04-10T07:41:14.315Z,15.52
2018-04-10T07:42:14.340Z,15.46
2018-04-10T07:43:14.369Z,15.46
2018-04-10T07:44:14.391Z,15.44
2018-04-10T07:45:14.422Z,15.49
2018-04-10T07:46:14.451Z,15.44
2018-04-10T07:47:14.475Z,15.43
2018-04-10T07:48:14.494Z,15.44
2018-04-10T07:49:14.521Z,15.44
2018-04-10T07:50:14.567Z,15.53
2018-04-10T07:51:14.570Z,15.59
2018-04-10T07:52:14.596Z,15.67
2018-04-10T07:53:14.621Z,15.81
2018-04-10T07:54:14.650Z,15.80
2018-04-10T07:55:14.678Z,15.92
2018-04-10T07:56:14.699Z,15.91
2018-04-10T07:57:14.726Z,15.96
2018-04-10T07:58:14.752Z,15.93
2018-04-10T07:59:14.783Z,15.86
2018-04-10T08:00:14.815Z,15.99
2018-04-10T08:01:14.836Z,15.86
2018-04-10T08:02:14.862Z,15.74
2018-04-10T08:03:14.898Z,15.91
2018-04-10T08:04:14.906Z,15.89
2018-04-10T08:05:14.934Z,15.96
2018-04-10T08:06:14.963Z,16.03
2018-04-10T08:07:14.986Z,16.08
2018-04-10T08:08:15.020Z,16.06
2018-04-10T08:09:15.039Z,16.04
2018-04-10T08:10:15.060Z,15.92
2018-04-10T08:11:15.090Z,16.01
2018-04-10T08:12:15.115Z,15.98
2018-04-10T08:13:15.145Z,16.04
2018-04-10T08:14:15.165Z,15.99
2018-04-10T08:15:15.192Z,15.98
2018-04-10T08:16:15.220Z,16.07
2018-04-10T08:17:15.248Z,16.01
2018-04-10T08:18:15.271Z,16.10
2018-04-10T08:19:15.300Z,16.22
2018-04-10T08:20:15.328Z,16.25
2018-04-10T08:21:15.354Z,16.29
2018-04-10T08:22:15.384Z,16.34
2018-04-10T08:23:15.404Z,16.51
2018-04-10T08:24:15.428Z,16.52
2018-04-10T08:25:15.457Z,16.57
2018-04-10T08:26:15.483Z,16.65
2018-04-10T08:27:15.505Z,16.67
2018-04-10T08:28:15.533Z,16.72
2018-04-10T08:29:15.557Z,16.75
2018-04-10T08:30:15.583Z,16.77
2018-04-10T08:31:15.608Z,16.85
2018-04-10T08:32:15.632Z,16.90
2018-04-10T08:33:15.667Z,16.85
2018-04-10T08:34:15.690Z,16.90
2018-04-10T08:35:15.713Z,16.95
2018-04-10T08:36:15.747Z,16.91
2018-04-10T08:37:15.767Z,16.90
2018-04-10T08:38:15.792Z,16.95
2018-04-10T08:39:15.817Z,17.05
2018-04-10T08:40:15.847Z,17.06
2018-04-10T08:41:15.890Z,17.20
2018-04-10T08:42:15.897Z,17.25
2018-04-10T08:43:15.928Z,17.20
2018-04-10T08:44:15.952Z,17.28
2018-04-10T08:45:15.982Z,17.20
2018-04-10T08:46:16.008Z,17.27
2018-04-10T08:47:16.036Z,17.24
2018-04-10T08:48:16.059Z,17.14
2018-04-10T08:49:16.089Z,17.10
2018-04-10T08:50:16.119Z,17.21
2018-04-10T08:51:16.135Z,17.27
2018-04-10T08:52:16.165Z,17.33
2018-04-10T08:53:16.190Z,17.39
2018-04-10T08:54:16.219Z,17.39
2018-04-10T08:55:16.250Z,17.38
2018-04-10T08:56:16.276Z,17.40
2018-04-10T08:57:16.298Z,17.40
2018-04-10T08:58:16.330Z,17.43
2018-04-10T08:59:16.354Z,17.58
2018-04-10T09:00:16.380Z,17.62
2018-04-10T09:01:16.406Z,17.66
2018-04-10T09:02:16.435Z,17.74
2018-04-10T09:03:16.467Z,17.66
2018-04-10T09:04:16.486Z,17.68
2018-04-10T09:05:16.510Z,17.60
2018-04-10T09:06:16.535Z,17.66
2018-04-10T09:07:16.567Z,17.62
2018-04-10T09:08:16.589Z,17.55
2018-04-10T09:09:16.647Z,17.55
2018-04-10T09:10:16.684Z,17.51
2018-04-10T09:11:16.669Z,17.60
2018-04-10T09:12:16.701Z,17.66
2018-04-10T09:13:16.727Z,17.60
2018-04-10T09:14:16.753Z,17.77
2018-04-10T09:15:16.785Z,17.89
2018-04-10T09:16:16.862Z,17.92
2018-04-10T09:17:16.833Z,17.95
2018-04-10T09:18:16.860Z,17.95
2018-04-10T09:19:16.885Z,17.79
2018-04-10T09:20:16.918Z,17.81
2018-04-10T09:21:16.943Z,17.86
2018-04-10T09:22:16.967Z,17.95
2018-04-10T09:23:16.995Z,18.01
2018-04-10T09:24:17.022Z,18.07
2018-04-10T09:25:17.044Z,18.20
2018-04-10T09:26:17.076Z,18.14
2018-04-10T09:27:17.105Z,18.20
2018-04-10T09:28:17.139Z,18.07
2018-04-10T09:29:17.164Z,18.05
2018-04-10T09:30:17.188Z,18.07
2018-04-10T09:31:17.210Z,18.05
2018-04-10T09:32:17.236Z,18.04
2018-04-10T09:33:17.265Z,18.13
2018-04-10T09:34:17.288Z,18.16
2018-04-10T09:35:17.326Z,18.28
2018-04-10T09:36:17.348Z,18.32
2018-04-10T09:37:17.371Z,18.29
2018-04-10T09:38:17.395Z,18.28
2018-04-10T09:39:17.428Z,18.26
2018-04-10T09:40:17.454Z,18.26
2018-04-10T09:41:17.480Z,18.26
2018-04-10T09:42:17.506Z,18.25
2018-04-10T09:43:17.534Z,18.26
2018-04-10T09:44:17.564Z,18.28
2018-04-10T09:45:17.592Z,18.41
2018-04-10T09:46:17.617Z,18.56
2018-04-10T09:47:17.645Z,18.60
2018-04-10T09:48:17.675Z,18.60
2018-04-10T09:49:17.696Z,18.66
2018-04-10T09:50:17.727Z,18.69
2018-04-10T09:51:17.753Z,18.69
2018-04-10T09:52:17.782Z,18.68
2018-04-10T09:53:17.816Z,18.68
2018-04-10T09:54:17.830Z,18.69
2018-04-10T09:55:17.871Z,18.66
2018-04-10T09:56:17.885Z,18.74
2018-04-10T09:57:17.916Z,18.90
2018-04-10T09:58:17.945Z,18.84
2018-04-10T09:59:17.974Z,19.05
2018-04-10T10:00:17.993Z,19.09
2018-04-10T10:01:18.030Z,19.09
2018-04-10T10:02:18.056Z,19.13
2018-04-10T10:03:18.077Z,19.10
2018-04-10T10:04:18.106Z,19.27
2018-04-10T10:05:18.135Z,19.16
2018-04-10T10:06:18.160Z,19.12
2018-04-10T10:07:18.197Z,19.07
2018-04-10T10:08:18.214Z,19.10
2018-04-10T10:09:18.244Z,19.09
2018-04-10T10:10:18.268Z,19.25
2018-04-10T10:11:18.294Z,19.34
2018-04-10T10:12:18.325Z,19.15
2018-04-10T10:13:18.353Z,19.24
2018-04-10T10:14:18.389Z,19.16
2018-04-10T10:15:18.406Z,19.24
2018-04-10T10:16:18.440Z,19.25
2018-04-10T10:17:18.469Z,19.42
2018-04-10T10:18:18.493Z,19.30
2018-04-10T10:19:18.523Z,19.21
2018-04-10T10:20:18.543Z,19.24
2018-04-10T10:21:18.578Z,19.07
2018-04-10T10:22:18.599Z,19.10
2018-04-10T10:23:18.629Z,19.20
2018-04-10T10:24:18.659Z,19.16
2018-04-10T10:25:18.684Z,19.28
2018-04-10T10:26:18.716Z,19.20
2018-04-10T10:27:18.742Z,19.13
2018-04-10T10:28:18.766Z,19.05
2018-04-10T10:29:18.797Z,19.10
2018-04-10T10:30:18.823Z,19.07
2018-04-10T10:31:18.853Z,18.97
2018-04-10T10:32:18.879Z,19.07
2018-04-10T10:33:18.903Z,18.94
2018-04-10T10:34:18.933Z,18.91
2018-04-10T10:35:18.962Z,18.76
2018-04-10T10:36:18.992Z,18.82
2018-04-10T10:37:19.019Z,19.06
2018-04-10T10:38:19.049Z,19.23
2018-04-10T10:39:19.078Z,19.32
2018-04-10T10:40:19.097Z,19.52
2018-04-10T10:41:19.128Z,19.57
2018-04-10T10:42:19.151Z,19.40
2018-04-10T10:43:19.187Z,19.42
2018-04-10T10:44:19.224Z,19.38
2018-04-10T10:45:19.244Z,19.53
2018-04-10T10:46:19.267Z,19.67
2018-04-10T10:47:19.297Z,19.71
2018-04-10T10:48:19.335Z,19.82
2018-04-10T10:49:19.357Z,19.95
2018-04-10T10:50:19.380Z,20.04
2018-04-10T10:51:19.408Z,20.16
2018-04-10T10:52:19.441Z,20.27
2018-04-10T10:53:19.470Z,20.50
2018-04-10T10:54:19.493Z,20.33
2018-04-10T10:55:19.522Z,20.48
2018-04-10T10:56:19.552Z,20.42
2018-04-10T10:57:19.581Z,20.27
2018-04-10T10:58:19.615Z,20.30
2018-04-10T10:59:19.642Z,20.41
2018-04-10T11:00:19.663Z,20.44
2018-04-10T11:01:19.696Z,20.42
2018-04-10T11:02:19.722Z,20.51
2018-04-10T11:03:19.756Z,20.91
2018-04-10T11:04:19.781Z,21.18
2018-04-10T11:05:19.815Z,21.28
2018-04-10T11:06:19.842Z,21.18
2018-04-10T11:07:19.871Z,21.86
2018-04-10T11:08:19.905Z,23.00
2018-04-10T11:09:19.932Z,23.41
2018-04-10T11:10:19.961Z,23.86
2018-04-10T11:11:19.993Z,24.09
2018-04-10T11:12:20.026Z,24.55
2018-04-10T11:13:20.062Z,24.87
2018-04-10T11:14:20.085Z,25.05
2018-04-10T11:15:20.117Z,24.74
2018-04-10T11:16:20.146Z,25.04
2018-04-10T11:17:20.181Z,24.77
2018-04-10T11:18:20.210Z,24.75
2018-04-10T11:19:20.242Z,25.48
2018-04-10T11:20:20.276Z,25.91
2018-04-10T11:21:20.304Z,25.60
2018-04-10T11:22:20.341Z,25.75
2018-04-10T11:23:20.375Z,25.96
2018-04-10T11:24:20.406Z,26.49
2018-04-10T11:25:20.443Z,25.78
2018-04-10T11:26:20.471Z,25.38
2018-04-10T11:27:20.503Z,25.81
2018-04-10T11:28:20.541Z,26.01
2018-04-10T11:29:20.571Z,25.81
2018-04-10T11:30:20.609Z,25.76
2018-04-10T11:31:20.633Z,26.11
2018-04-10T11:32:20.667Z,26.16
2018-04-10T11:33:20.704Z,25.53
2018-04-10T11:34:20.739Z,25.05
2018-04-10T11:35:20.773Z,24.93
2018-04-10T11:36:20.808Z,24.61
2018-04-10T11:37:20.840Z,25.14
2018-04-10T11:38:20.867Z,25.09
2018-04-10T11:39:20.908Z,25.14
2018-04-10T11:40:20.944Z,25.85
2018-04-10T11:41:20.967Z,25.81
2018-04-10T11:42:21.006Z,25.30
2018-04-10T11:43:21.039Z,25.64
2018-04-10T11:44:21.093Z,25.82
2018-04-10T11:45:21.116Z,26.35
2018-04-10T11:46:21.139Z,26.91
2018-04-10T11:47:21.175Z,27.01
2018-04-10T11:48:21.210Z,26.68
2018-04-10T11:49:21.241Z,27.12
2018-04-10T11:50:21.276Z,26.96
2018-04-10T11:51:21.309Z,27.18
2018-04-10T11:52:21.348Z,26.78
2018-04-10T11:53:21.378Z,26.91
2018-04-10T11:54:21.415Z,26.98
2018-04-10T11:55:21.450Z,27.03
2018-04-10T11:56:21.484Z,27.15
2018-04-10T11:57:21.515Z,26.96
2018-04-10T11:58:21.546Z,26.83
2018-04-10T11:59:21.591Z,26.91
2018-04-10T12:00:21.640Z,27.15
2018-04-10T12:01:21.652Z,27.28
2018-04-10T12:02:21.691Z,26.90
2018-04-10T12:03:21.726Z,26.59
2018-04-10T12:04:21.761Z,26.91
2018-04-10T12:05:21.804Z,26.56
2018-04-10T12:06:21.832Z,26.36
2018-04-10T12:07:21.862Z,26.24
2018-04-10T12:08:21.902Z,26.61
2018-04-10T12:09:21.940Z,26.96
2018-04-10T12:10:21.970Z,27.15
2018-04-10T12:11:22.005Z,26.39
2018-04-10T12:12:22.040Z,26.50
2018-04-10T12:13:22.082Z,26.38
2018-04-10T12:14:22.113Z,26.49
2018-04-10T12:15:22.148Z,26.12
2018-04-10T12:16:22.180Z,26.16
2018-04-10T12:17:22.221Z,26.78
2018-04-10T12:18:22.258Z,26.59
2018-04-10T12:19:22.299Z,26.69
2018-04-10T12:20:22.320Z,26.46
2018-04-10T12:21:22.359Z,27.08
2018-04-10T12:22:22.395Z,27.25
2018-04-10T12:23:22.433Z,27.18
2018-04-10T12:24:22.500Z,27.46
2018-04-10T12:25:22.498Z,27.40
2018-04-10T12:26:22.542Z,27.02
2018-04-10T12:27:22.571Z,26.72
2018-04-10T12:28:22.613Z,27.12
2018-04-10T12:29:22.648Z,26.47
2018-04-10T12:30:22.683Z,26.49
2018-04-10T12:31:22.717Z,25.93
2018-04-10T12:32:22.752Z,25.36
2018-04-10T12:33:22.794Z,24.51
2018-04-10T12:34:22.829Z,23.96
2018-04-10T12:35:22.861Z,23.69
2018-04-10T12:36:22.900Z,24.18
2018-04-10T12:37:22.929Z,25.54
2018-04-10T12:38:22.968Z,26.51
2018-04-10T12:39:22.999Z,27.50
2018-04-10T12:40:23.039Z,28.42
2018-04-10T12:41:23.077Z,27.58
2018-04-10T12:42:23.105Z,27.61
2018-04-10T12:43:23.204Z,27.84
2018-04-10T12:44:23.177Z,27.95
2018-04-10T12:45:23.220Z,28.23
2018-04-10T12:46:23.253Z,28.83
2018-04-10T12:47:23.288Z,28.80
2018-04-10T12:48:23.323Z,29.33
2018-04-10T12:49:23.359Z,28.38
2018-04-10T12:50:23.396Z,28.51
2018-04-10T12:51:23.436Z,28.54
2018-04-10T12:52:23.471Z,28.11